sensor_id;sensor_type;location;lat;lon;timestamp;pressure;altitude;pressure_sealevel;temperature;humidity
6500;BME280;3283;52.330;9.772;2023-03-14T05:03:05;98194.66;;;9.16;100.00
6500;BME280;3283;52.330;9.772;2023-03-14T05:05:30;98183.16;;;9.38;100.00
6500;BME280;3283;52.330;9.772;2023-03-14T05:07:56;98175.25;;;9.56;100.00
6500;BME280;3283;52.330;9.772;2023-03-14T05:10:21;98178.06;;;9.71;100.00
6500;BME280;3283;52.330;9.772;2023-03-14T05:12:47;98172.50;;;9.77;100.00
6500;BME280;3283;52.330;9.772;2023-03-14T05:15:12;98173.28;;;9.79;100.00
6500;BME280;3283;52.330;9.772;2023-03-14T05:17:37;98183.72;;;9.80;100.00
6500;BME280;3283;52.330;9.772;2023-03-14T05:20:03;98175.13;;;9.77;100.00
6500;BME280;3283;52.330;9.772;2023-03-14T05:22:38;98166.78;;;9.69;100.00
6500;BME280;3283;52.330;9.772;2023-03-14T05:25:04;98157.50;;;9.61;100.00
6500;BME280;3283;52.330;9.772;2023-03-14T05:27:29;98173.72;;;9.52;100.00
6500;BME280;3283;52.330;9.772;2023-03-14T05:29:55;98164.81;;;9.55;100.00
6500;BME280;3283;52.330;9.772;2023-03-14T05:32:20;56484.91;;;-143.80;100.00
6500;BME280;3283;52.330;9.772;2023-03-14T05:34:45;56484.91;;;-143.80;80.24
6500;BME280;3283;52.330;9.772;2023-03-14T05:37:11;56484.91;;;-143.80;100.00
6500;BME280;3283;52.330;9.772;2023-03-14T05:39:36;56484.91;;;-143.80;100.00
6500;BME280;3283;52.330;9.772;2023-03-14T05:42:01;98154.78;;;9.63;100.00
6500;BME280;3283;52.330;9.772;2023-03-14T05:44:27;98145.06;;;9.65;100.00
6500;BME280;3283;52.330;9.772;2023-03-14T05:46:52;98150.25;;;9.67;100.00
6500;BME280;3283;52.330;9.772;2023-03-14T05:49:18;98149.41;;;9.66;100.00
6500;BME280;3283;52.330;9.772;2023-03-14T05:51:43;98148.69;;;9.62;100.00
6500;BME280;3283;52.330;9.772;2023-03-14T05:54:09;56484.91;;;-143.80;100.00
6500;BME280;3283;52.330;9.772;2023-03-14T05:56:34;98148.69;;;9.62;100.00
6500;BME280;3283;52.330;9.772;2023-03-14T05:58:59;98150.88;;;9.72;100.00
6500;BME280;3283;52.330;9.772;2023-03-14T06:01:27;98137.59;;;9.75;100.00
6500;BME280;3283;52.330;9.772;2023-03-14T06:03:53;98138.56;;;9.72;100.00
6500;BME280;3283;52.330;9.772;2023-03-14T06:06:18;98137.81;;;9.70;100.00
6500;BME280;3283;52.330;9.772;2023-03-14T06:08:44;98131.63;;;9.71;100.00
6500;BME280;3283;52.330;9.772;2023-03-14T06:11:09;56484.91;;;-143.80;100.00
6500;BME280;3283;52.330;9.772;2023-03-14T06:13:34;56484.91;;;-143.80;100.00
6500;BME280;3283;52.330;9.772;2023-03-14T06:16:00;98131.63;;;9.71;100.00
6500;BME280;3283;52.330;9.772;2023-03-14T06:18:25;98131.63;;;9.71;100.00
6500;BME280;3283;52.330;9.772;2023-03-14T06:20:53;98133.22;;;10.10;100.00
6500;BME280;3283;52.330;9.772;2023-03-14T06:23:19;56484.91;;;-143.80;100.00
6500;BME280;3283;52.330;9.772;2023-03-14T06:25:44;98136.94;;;10.23;100.00
6500;BME280;3283;52.330;9.772;2023-03-14T06:28:10;98136.94;;;10.23;100.00
6500;BME280;3283;52.330;9.772;2023-03-14T06:30:35;98145.97;;;10.35;100.00
6500;BME280;3283;52.330;9.772;2023-03-14T06:33:01;56484.91;;;-143.80;100.00
6500;BME280;3283;52.330;9.772;2023-03-14T06:35:26;56484.91;;;-143.80;100.00
6500;BME280;3283;52.330;9.772;2023-03-14T06:37:52;56484.91;;;-143.80;100.00
6500;BME280;3283;52.330;9.772;2023-03-14T06:40:17;56484.91;;;-143.80;100.00
6500;BME280;3283;52.330;9.772;2023-03-14T06:42:44;98141.94;;;10.45;100.00
6500;BME280;3283;52.330;9.772;2023-03-14T06:45:09;98141.94;;;10.45;100.00
6500;BME280;3283;52.330;9.772;2023-03-14T06:47:35;98144.25;;;10.51;99.83
6500;BME280;3283;52.330;9.772;2023-03-14T06:50:01;56484.91;;;-143.80;100.00
6500;BME280;3283;52.330;9.772;2023-03-14T06:52:26;56484.91;;;-143.80;100.00
6500;BME280;3283;52.330;9.772;2023-03-14T06:54:51;56484.91;;;-143.80;100.00
6500;BME280;3283;52.330;9.772;2023-03-14T06:57:17;56484.91;;;-143.80;100.00
6500;BME280;3283;52.330;9.772;2023-03-14T06:59:42;98144.25;;;10.51;99.83
6500;BME280;3283;52.330;9.772;2023-03-14T07:02:10;98163.25;;;10.89;96.30
6500;BME280;3283;52.330;9.772;2023-03-14T07:04:37;56484.91;;;-143.80;100.00
6500;BME280;3283;52.330;9.772;2023-03-14T07:07:02;56484.91;;;-143.80;100.00
6500;BME280;3283;52.330;9.772;2023-03-14T07:09:27;98168.38;;;10.92;97.86
6500;BME280;3283;52.330;9.772;2023-03-14T07:11:53;56484.91;;;-143.80;100.00
6500;BME280;3283;52.330;9.772;2023-03-14T07:14:18;56484.91;;;-143.80;100.00
6500;BME280;3283;52.330;9.772;2023-03-14T07:16:43;56484.91;;;-143.80;100.00
6500;BME280;3283;52.330;9.772;2023-03-14T07:19:10;98159.72;;;10.57;100.00
6500;BME280;3283;52.330;9.772;2023-03-14T07:21:36;56484.91;;;-143.80;100.00
6500;BME280;3283;52.330;9.772;2023-03-14T07:24:01;56484.91;;;-143.80;100.00
6500;BME280;3283;52.330;9.772;2023-03-14T07:26:26;98159.72;;;10.57;100.00
6500;BME280;3283;52.330;9.772;2023-03-14T07:28:52;56484.91;;;-143.80;100.00
6500;BME280;3283;52.330;9.772;2023-03-14T07:31:17;98167.63;;;10.73;100.00
6500;BME280;3283;52.330;9.772;2023-03-14T07:33:43;98177.22;;;10.74;100.00
6500;BME280;3283;52.330;9.772;2023-03-14T07:36:08;98175.69;;;10.70;100.00
6500;BME280;3283;52.330;9.772;2023-03-14T07:38:34;98181.25;;;10.64;100.00
6500;BME280;3283;52.330;9.772;2023-03-14T07:41:01;56484.91;;;-143.80;100.00
6500;BME280;3283;52.330;9.772;2023-03-14T07:43:26;56484.91;;;-143.80;100.00
6500;BME280;3283;52.330;9.772;2023-03-14T07:45:52;98183.44;;;10.56;100.00
6500;BME280;3283;52.330;9.772;2023-03-14T07:48:17;98189.09;;;10.65;100.00
6500;BME280;3283;52.330;9.772;2023-03-14T07:50:43;56484.91;;;-143.80;100.00
6500;BME280;3283;52.330;9.772;2023-03-14T07:53:09;56484.91;;;-143.80;100.00
6500;BME280;3283;52.330;9.772;2023-03-14T07:55:34;98182.28;;;10.09;100.00
6500;BME280;3283;52.330;9.772;2023-03-14T07:58:00;98192.09;;;10.06;100.00
6500;BME280;3283;52.330;9.772;2023-03-14T08:00:25;56484.91;;;-143.80;100.00
6500;BME280;3283;52.330;9.772;2023-03-14T08:02:51;98190.56;;;10.02;100.00
6500;BME280;3283;52.330;9.772;2023-03-14T08:05:16;98195.13;;;10.15;100.00
6500;BME280;3283;52.330;9.772;2023-03-14T08:07:42;56484.91;;;-143.80;100.00
6500;BME280;3283;52.330;9.772;2023-03-14T08:10:08;56484.91;;;-143.80;100.00
6500;BME280;3283;52.330;9.772;2023-03-14T08:12:34;56484.91;;;-143.80;100.00
6500;BME280;3283;52.330;9.772;2023-03-14T08:14:59;56484.91;;;-143.80;100.00
6500;BME280;3283;52.330;9.772;2023-03-14T08:17:24;56484.91;;;-143.80;100.00
6500;BME280;3283;52.330;9.772;2023-03-14T08:19:50;56484.91;;;-143.80;100.00
6500;BME280;3283;52.330;9.772;2023-03-14T08:22:15;56484.91;;;-143.80;100.00
6500;BME280;3283;52.330;9.772;2023-03-14T08:24:40;98184.63;;;11.32;100.00
6500;BME280;3283;52.330;9.772;2023-03-14T08:27:06;98184.09;;;11.41;100.00
6500;BME280;3283;52.330;9.772;2023-03-14T08:29:31;56484.91;;;-143.80;100.00
6500;BME280;3283;52.330;9.772;2023-03-14T08:31:56;56484.91;;;-143.80;100.00
6500;BME280;3283;52.330;9.772;2023-03-14T08:34:22;56484.91;;;-143.80;100.00
6500;BME280;3283;52.330;9.772;2023-03-14T08:36:47;56484.91;;;-143.80;100.00
6500;BME280;3283;52.330;9.772;2023-03-14T08:39:12;56484.91;;;-143.80;100.00
6500;BME280;3283;52.330;9.772;2023-03-14T08:41:38;56484.91;;;-143.80;100.00
6500;BME280;3283;52.330;9.772;2023-03-14T08:44:07;56484.91;;;-143.80;100.00
6500;BME280;3283;52.330;9.772;2023-03-14T08:46:33;56484.91;;;-143.80;100.00
6500;BME280;3283;52.330;9.772;2023-03-14T08:48:58;98181.72;;;11.52;100.00
6500;BME280;3283;52.330;9.772;2023-03-14T08:51:23;98184.38;;;11.52;100.00
6500;BME280;3283;52.330;9.772;2023-03-14T08:53:49;56484.91;;;-143.80;100.00
6500;BME280;3283;52.330;9.772;2023-03-14T08:56:15;56484.91;;;-143.80;100.00
6500;BME280;3283;52.330;9.772;2023-03-14T08:58:41;56484.91;;;-143.80;100.00
6500;BME280;3283;52.330;9.772;2023-03-14T09:01:09;56484.91;;;-143.80;100.00
6500;BME280;3283;52.330;9.772;2023-03-14T09:03:35;56484.91;;;-143.80;100.00
6500;BME280;3283;52.330;9.772;2023-03-14T09:06:05;56484.91;;;-143.80;100.00
6500;BME280;3283;52.330;9.772;2023-03-14T09:08:31;56484.91;;;-143.80;100.00
6500;BME280;3283;52.330;9.772;2023-03-14T09:10:56;56484.91;;;-143.80;100.00
6500;BME280;3283;52.330;9.772;2023-03-14T09:13:22;56484.91;;;-143.80;100.00
6500;BME280;3283;52.330;9.772;2023-03-14T09:15:54;56484.91;;;-143.80;100.00
6500;BME280;3283;52.330;9.772;2023-03-14T09:18:21;56484.91;;;-143.80;100.00
6500;BME280;3283;52.330;9.772;2023-03-14T09:20:46;56484.91;;;-143.80;100.00
6500;BME280;3283;52.330;9.772;2023-03-14T09:23:12;56484.91;;;-143.80;100.00
6500;BME280;3283;52.330;9.772;2023-03-14T09:25:37;56484.91;;;-143.80;100.00
6500;BME280;3283;52.330;9.772;2023-03-14T09:28:03;56484.91;;;-143.80;100.00
6500;BME280;3283;52.330;9.772;2023-03-14T09:30:29;56484.91;;;-143.80;100.00
6500;BME280;3283;52.330;9.772;2023-03-14T09:32:54;56484.91;;;-143.80;100.00
6500;BME280;3283;52.330;9.772;2023-03-14T09:35:20;56484.91;;;-143.80;100.00
6500;BME280;3283;52.330;9.772;2023-03-14T09:37:45;56484.91;;;-143.80;100.00
6500;BME280;3283;52.330;9.772;2023-03-14T09:40:12;56484.91;;;-143.80;100.00
6500;BME280;3283;52.330;9.772;2023-03-14T09:42:39;56484.91;;;-143.80;100.00
6500;BME280;3283;52.330;9.772;2023-03-14T09:45:35;56484.91;;;-143.80;100.00
6500;BME280;3283;52.330;9.772;2023-03-14T09:48:03;56484.91;;;-143.80;100.00
6500;BME280;3283;52.330;9.772;2023-03-14T09:50:59;56484.91;;;-143.80;100.00
6500;BME280;3283;52.330;9.772;2023-03-14T09:53:36;56484.91;;;-143.80;100.00
6500;BME280;3283;52.330;9.772;2023-03-14T09:56:07;56484.91;;;-143.80;100.00
6500;BME280;3283;52.330;9.772;2023-03-14T09:58:35;56484.91;;;-143.80;100.00
6500;BME280;3283;52.330;9.772;2023-03-14T10:01:02;56484.91;;;-143.80;100.00
6500;BME280;3283;52.330;9.772;2023-03-14T10:03:35;56484.91;;;-143.80;100.00
6500;BME280;3283;52.330;9.772;2023-03-14T10:06:00;56484.91;;;-143.80;100.00
6500;BME280;3283;52.330;9.772;2023-03-14T10:08:26;56484.91;;;-143.80;100.00
6500;BME280;3283;52.330;9.772;2023-03-14T10:10:52;56484.91;;;-143.80;100.00
6500;BME280;3283;52.330;9.772;2023-03-14T10:13:24;56484.91;;;-143.80;100.00
6500;BME280;3283;52.330;9.772;2023-03-14T10:15:55;56484.91;;;-143.80;100.00
6500;BME280;3283;52.330;9.772;2023-03-14T10:18:24;56484.91;;;-143.80;100.00
6500;BME280;3283;52.330;9.772;2023-03-14T10:21:34;56484.91;;;-143.80;100.00
6500;BME280;3283;52.330;9.772;2023-03-14T10:23:52;56484.91;;;-143.80;100.00
6500;BME280;3283;52.330;9.772;2023-03-14T10:26:24;56484.91;;;-143.80;100.00
6500;BME280;3283;52.330;9.772;2023-03-14T10:28:54;56484.91;;;-143.80;100.00
6500;BME280;3283;52.330;9.772;2023-03-14T10:31:26;56484.91;;;-143.80;100.00
6500;BME280;3283;52.330;9.772;2023-03-14T10:34:00;56484.91;;;-143.80;100.00
6500;BME280;3283;52.330;9.772;2023-03-14T10:36:30;56484.91;;;-143.80;100.00
6500;BME280;3283;52.330;9.772;2023-03-14T10:39:21;56484.91;;;-143.80;100.00
6500;BME280;3283;52.330;9.772;2023-03-14T10:41:50;56484.91;;;-143.80;100.00
6500;BME280;3283;52.330;9.772;2023-03-14T10:44:20;56484.91;;;-143.80;100.00
6500;BME280;3283;52.330;9.772;2023-03-14T10:46:56;56484.91;;;-143.80;100.00
6500;BME280;3283;52.330;9.772;2023-03-14T10:49:42;56484.91;;;-143.80;100.00
6500;BME280;3283;52.330;9.772;2023-03-14T10:54:41;56484.91;;;-143.80;100.00
6500;BME280;3283;52.330;9.772;2023-03-14T10:57:11;56484.91;;;-143.80;100.00
6500;BME280;3283;52.330;9.772;2023-03-14T10:59:39;56484.91;;;-143.80;100.00
6500;BME280;3283;52.330;9.772;2023-03-14T11:07:39;56484.91;;;-143.80;100.00
6500;BME280;3283;52.330;9.772;2023-03-14T11:13:15;56484.91;;;-143.80;100.00
6500;BME280;3283;52.330;9.772;2023-03-14T11:21:07;56484.91;;;-143.80;100.00
6500;BME280;3283;52.330;9.772;2023-03-14T11:26:54;56484.91;;;-143.80;100.00
6500;BME280;3283;52.330;9.772;2023-03-14T11:29:39;56484.91;;;-143.80;100.00
6500;BME280;3283;52.330;9.772;2023-03-14T11:32:27;56484.91;;;-143.80;100.00
6500;BME280;3283;52.330;9.772;2023-03-14T11:34:54;56484.91;;;-143.80;100.00
6500;BME280;3283;52.330;9.772;2023-03-14T11:37:32;56484.91;;;-143.80;100.00
6500;BME280;3283;52.330;9.772;2023-03-14T11:42:47;56484.91;;;-143.80;100.00
6500;BME280;3283;52.330;9.772;2023-03-14T11:45:26;56484.91;;;-143.80;100.00
6500;BME280;3283;52.330;9.772;2023-03-14T11:50:39;56484.91;;;-143.80;100.00
6500;BME280;3283;52.330;9.772;2023-03-14T11:53:15;56484.91;;;-143.80;100.00
6500;BME280;3283;52.330;9.772;2023-03-14T11:55:43;56484.91;;;-143.80;100.00
6500;BME280;3283;52.330;9.772;2023-03-14T11:58:20;56484.91;;;-143.80;100.00
6500;BME280;3283;52.330;9.772;2023-03-14T12:00:50;56484.91;;;-143.80;100.00
6500;BME280;3283;52.330;9.772;2023-03-14T12:03:32;56484.91;;;-143.80;100.00
6500;BME280;3283;52.330;9.772;2023-03-14T12:06:16;56484.91;;;-143.80;100.00
6500;BME280;3283;52.330;9.772;2023-03-14T12:08:58;56484.91;;;-143.80;100.00
6500;BME280;3283;52.330;9.772;2023-03-14T12:11:38;56484.91;;;-143.80;100.00
6500;BME280;3283;52.330;9.772;2023-03-14T12:14:27;56484.91;;;-143.80;100.00
6500;BME280;3283;52.330;9.772;2023-03-14T12:16:56;56484.91;;;-143.80;100.00
6500;BME280;3283;52.330;9.772;2023-03-14T12:24:23;56484.91;;;-143.80;100.00
6500;BME280;3283;52.330;9.772;2023-03-14T12:26:55;56484.91;;;-143.80;100.00
6500;BME280;3283;52.330;9.772;2023-03-14T12:29:21;56484.91;;;-143.80;100.00
6500;BME280;3283;52.330;9.772;2023-03-14T12:32:13;56484.91;;;-143.80;100.00
6500;BME280;3283;52.330;9.772;2023-03-14T12:34:40;56484.91;;;-143.80;100.00
6500;BME280;3283;52.330;9.772;2023-03-14T12:45:14;56484.91;;;-143.80;100.00
6500;BME280;3283;52.330;9.772;2023-03-14T12:47:45;56484.91;;;-143.80;100.00
6500;BME280;3283;52.330;9.772;2023-03-14T12:50:18;56484.91;;;-143.80;100.00
6500;BME280;3283;52.330;9.772;2023-03-14T12:52:49;56484.91;;;-143.80;100.00
6500;BME280;3283;52.330;9.772;2023-03-14T13:00:23;56484.91;;;-143.80;100.00
6500;BME280;3283;52.330;9.772;2023-03-14T13:03:00;56484.91;;;-143.80;100.00
6500;BME280;3283;52.330;9.772;2023-03-14T13:05:29;56484.91;;;-143.80;100.00
6500;BME280;3283;52.330;9.772;2023-03-14T13:13:03;56484.91;;;-143.80;100.00
6500;BME280;3283;52.330;9.772;2023-03-14T13:21:19;56484.91;;;-143.80;100.00
6500;BME280;3283;52.330;9.772;2023-03-14T13:26:31;56484.91;;;-143.80;100.00
6500;BME280;3283;52.330;9.772;2023-03-14T13:28:58;56484.91;;;-143.80;100.00
6500;BME280;3283;52.330;9.772;2023-03-14T13:31:25;56484.91;;;-143.80;100.00
6500;BME280;3283;52.330;9.772;2023-03-14T13:34:02;56484.91;;;-143.80;100.00
6500;BME280;3283;52.330;9.772;2023-03-14T13:36:29;56484.91;;;-143.80;100.00
6500;BME280;3283;52.330;9.772;2023-03-14T13:39:00;56484.91;;;-143.80;100.00
6500;BME280;3283;52.330;9.772;2023-03-14T13:41:27;56484.91;;;-143.80;100.00
6500;BME280;3283;52.330;9.772;2023-03-14T13:43:58;56484.91;;;-143.80;100.00
6500;BME280;3283;52.330;9.772;2023-03-14T13:46:25;56484.91;;;-143.80;100.00
6500;BME280;3283;52.330;9.772;2023-03-14T13:49:03;56484.91;;;-143.80;100.00
6500;BME280;3283;52.330;9.772;2023-03-14T13:51:31;56484.91;;;-143.80;100.00
6500;BME280;3283;52.330;9.772;2023-03-14T13:54:00;56484.91;;;-143.80;100.00
6500;BME280;3283;52.330;9.772;2023-03-14T13:56:28;56484.91;;;-143.80;100.00
6500;BME280;3283;52.330;9.772;2023-03-14T13:58:54;56484.91;;;-143.80;100.00
6500;BME280;3283;52.330;9.772;2023-03-14T14:01:20;56484.91;;;-143.80;100.00
6500;BME280;3283;52.330;9.772;2023-03-14T14:03:50;56484.91;;;-143.80;100.00
6500;BME280;3283;52.330;9.772;2023-03-14T14:06:38;56484.91;;;-143.80;100.00
6500;BME280;3283;52.330;9.772;2023-03-14T14:09:31;56484.91;;;-143.80;100.00
6500;BME280;3283;52.330;9.772;2023-03-14T14:12:11;56484.91;;;-143.80;100.00
6500;BME280;3283;52.330;9.772;2023-03-14T14:17:16;56484.91;;;-143.80;100.00
6500;BME280;3283;52.330;9.772;2023-03-14T14:19:44;56484.91;;;-143.80;100.00
6500;BME280;3283;52.330;9.772;2023-03-14T14:22:11;56484.91;;;-143.80;100.00
6500;BME280;3283;52.330;9.772;2023-03-14T14:24:37;56484.91;;;-143.80;100.00
6500;BME280;3283;52.330;9.772;2023-03-14T14:27:27;56484.91;;;-143.80;100.00
6500;BME280;3283;52.330;9.772;2023-03-14T14:30:05;56484.91;;;-143.80;100.00
6500;BME280;3283;52.330;9.772;2023-03-14T14:32:38;56484.91;;;-143.80;100.00
6500;BME280;3283;52.330;9.772;2023-03-14T14:35:05;56484.91;;;-143.80;100.00
6500;BME280;3283;52.330;9.772;2023-03-14T14:37:32;56484.91;;;-143.80;100.00
6500;BME280;3283;52.330;9.772;2023-03-14T14:40:00;56484.91;;;-143.80;100.00
6500;BME280;3283;52.330;9.772;2023-03-14T14:42:30;56484.91;;;-143.80;100.00
6500;BME280;3283;52.330;9.772;2023-03-14T14:44:57;56484.91;;;-143.80;100.00
6500;BME280;3283;52.330;9.772;2023-03-14T14:47:25;56484.91;;;-143.80;100.00
6500;BME280;3283;52.330;9.772;2023-03-14T14:49:53;56484.91;;;-143.80;100.00
6500;BME280;3283;52.330;9.772;2023-03-14T14:52:33;56484.91;;;-143.80;100.00
6500;BME280;3283;52.330;9.772;2023-03-14T14:55:00;56484.91;;;-143.80;100.00
6500;BME280;3283;52.330;9.772;2023-03-14T14:57:36;56484.91;;;-143.80;100.00
6500;BME280;3283;52.330;9.772;2023-03-14T15:00:10;56484.91;;;-143.80;100.00
6500;BME280;3283;52.330;9.772;2023-03-14T15:02:46;56484.91;;;-143.80;100.00
6500;BME280;3283;52.330;9.772;2023-03-14T15:05:38;56484.91;;;-143.80;100.00
6500;BME280;3283;52.330;9.772;2023-03-14T15:08:09;56484.91;;;-143.80;100.00
6500;BME280;3283;52.330;9.772;2023-03-14T15:10:35;56484.91;;;-143.80;100.00
6500;BME280;3283;52.330;9.772;2023-03-14T15:13:00;56484.91;;;-143.80;100.00
6500;BME280;3283;52.330;9.772;2023-03-14T15:15:25;56484.91;;;-143.80;100.00
6500;BME280;3283;52.330;9.772;2023-03-14T15:17:51;56484.91;;;-143.80;100.00
6500;BME280;3283;52.330;9.772;2023-03-14T15:20:17;56484.91;;;-143.80;100.00
6500;BME280;3283;52.330;9.772;2023-03-14T15:22:43;56484.91;;;-143.80;100.00
6500;BME280;3283;52.330;9.772;2023-03-14T15:25:10;56484.91;;;-143.80;100.00
6500;BME280;3283;52.330;9.772;2023-03-14T15:27:36;56484.91;;;-143.80;100.00
6500;BME280;3283;52.330;9.772;2023-03-14T15:30:05;56484.91;;;-143.80;100.00
6500;BME280;3283;52.330;9.772;2023-03-14T15:32:30;56484.91;;;-143.80;100.00
6500;BME280;3283;52.330;9.772;2023-03-14T15:34:57;56484.91;;;-143.80;100.00
6500;BME280;3283;52.330;9.772;2023-03-14T15:37:22;56484.91;;;-143.80;100.00
6500;BME280;3283;52.330;9.772;2023-03-14T15:39:48;56484.91;;;-143.80;100.00
6500;BME280;3283;52.330;9.772;2023-03-14T15:42:13;56484.91;;;-143.80;100.00
6500;BME280;3283;52.330;9.772;2023-03-14T15:44:39;56484.91;;;-143.80;100.00
6500;BME280;3283;52.330;9.772;2023-03-14T15:51:53;99273.28;;;5.45;73.37
6500;BME280;3283;52.330;9.772;2023-03-14T15:54:18;99279.22;;;5.55;73.20
6500;BME280;3283;52.330;9.772;2023-03-14T15:56:44;99287.00;;;5.58;72.42
6500;BME280;3283;52.330;9.772;2023-03-14T15:59:09;99295.66;;;5.60;72.13
6500;BME280;3283;52.330;9.772;2023-03-14T16:01:34;99287.81;;;5.61;72.10
6500;BME280;3283;52.330;9.772;2023-03-14T16:04:00;99294.69;;;5.67;72.57
6500;BME280;3283;52.330;9.772;2023-03-14T16:06:27;99308.75;;;5.57;71.70
6500;BME280;3283;52.330;9.772;2023-03-14T16:08:52;99309.63;;;5.57;71.46
6500;BME280;3283;52.330;9.772;2023-03-14T16:11:17;99321.78;;;5.58;72.00
6500;BME280;3283;52.330;9.772;2023-03-14T16:13:43;99325.34;;;5.53;72.08
6500;BME280;3283;52.330;9.772;2023-03-14T16:29:11;99355.50;;;5.73;73.81
6500;BME280;3283;52.330;9.772;2023-03-14T16:31:36;99370.50;;;5.59;72.35
6500;BME280;3283;52.330;9.772;2023-03-14T16:34:08;99366.22;;;5.54;71.22
6500;BME280;3283;52.330;9.772;2023-03-14T16:36:33;99380.94;;;5.56;69.57
6500;BME280;3283;52.330;9.772;2023-03-14T16:38:59;99391.53;;;5.45;69.54
6500;BME280;3283;52.330;9.772;2023-03-14T16:41:24;99396.63;;;5.58;69.68
6500;BME280;3283;52.330;9.772;2023-03-14T16:43:53;99411.34;;;5.62;69.04
6500;BME280;3283;52.330;9.772;2023-03-14T16:46:20;99403.59;;;5.57;68.49
6500;BME280;3283;52.330;9.772;2023-03-14T16:48:46;99419.22;;;5.59;67.75
6500;BME280;3283;52.330;9.772;2023-03-14T16:51:12;99433.03;;;5.67;67.97
6500;BME280;3283;52.330;9.772;2023-03-14T16:53:38;99431.38;;;5.60;68.03
6500;BME280;3283;52.330;9.772;2023-03-14T16:56:03;99443.53;;;5.61;68.39
6500;BME280;3283;52.330;9.772;2023-03-14T16:58:29;99449.66;;;5.57;68.41
